M/T Pazar — TCMC — position and weather

sailwx.info

Track history (hours):
 
Tides and Currents Weather Stations Pressure Air Temp Water Temp Dewpoint Dewpoint Depression Visibility Wind Speed Wind Dir Waves Ship Positions

M/T Pazar

Last reported at 2015-Aug-27 19:31 UTC. Time now 2015-Aug-27 20:44 UTC.
Position N 37°12' E 011°48'.

Length 85 m; draft 5.4 m.

Type: Tanker. MMSI: 271000251.

Date/timePositionNaut miles runAvg speedWind from/ knotsBaromVisibWave heightAir tempDewpointWater temp
2015-Aug-27 19:31N 37°12' E 011°48'  
2015-Aug-21 14:21N 36°54' E 012°32'9 9.1
2015-Aug-21 13:25N 36°50' E 012°42'8 9.0
2015-Aug-21 12:33N 36°46' E 012°50'9 8.9
2015-Aug-21 11:34N 36°43' E 013°00'19 9.1
2015-Aug-21 09:27N 36°35' E 013°22'18 9.5
2015-Aug-21 07:34N 36°30' E 013°44'10 9.7
2015-Aug-21 06:34N 36°26' E 013°55'10 9.9
2015-Aug-21 05:33N 36°22' E 014°06'1010.1
2015-Aug-21 04:33N 36°18' E 014°18'1010.1
2015-Aug-21 03:33N 36°14' E 014°29'85 9.4
2015-Aug-20 18:34N 35°39' E 016°04'12 9.8
2015-Aug-20 17:23N 35°35' E 016°18'  
Track history (hours):
 
Tides and Currents Weather Stations Pressure Air Temp Water Temp Dewpoint Dewpoint Depression Visibility Wind Speed Wind Dir Waves Ship Positions

M/T Pazar

Last reported at 2015-Aug-27 19:31 UTC. Time now 2015-Aug-27 20:44 UTC.
Position N 37°12' E 011°48'.

Length 85 m; draft 5.4 m.

Type: Tanker. MMSI: 271000251.

Date/timePositionNaut miles runAvg speedWind from/ knotsBaromVisibWave heightAir tempDewpointWater temp
2015-Aug-27 19:31N 37°12' E 011°48'  
2015-Aug-21 14:21N 36°54' E 012°32'9 9.1
2015-Aug-21 13:25N 36°50' E 012°42'8 9.0
2015-Aug-21 12:33N 36°46' E 012°50'9 8.9
2015-Aug-21 11:34N 36°43' E 013°00'19 9.1
2015-Aug-21 09:27N 36°35' E 013°22'18 9.5
2015-Aug-21 07:34N 36°30' E 013°44'10 9.7
2015-Aug-21 06:34N 36°26' E 013°55'10 9.9
2015-Aug-21 05:33N 36°22' E 014°06'1010.1
2015-Aug-21 04:33N 36°18' E 014°18'1010.1
2015-Aug-21 03:33N 36°14' E 014°29'85 9.4
2015-Aug-20 18:34N 35°39' E 016°04'12 9.8
2015-Aug-20 17:23N 35°35' E 016°18'  

Dump ship's entire track history